createdAt,value
2023-02-03T00:03:08.205Z,3.40
2023-02-03T00:07:17.796Z,2.87
2023-02-03T00:11:27.050Z,3.30
2023-02-03T00:15:36.275Z,3.97
2023-02-03T00:19:46.895Z,4.73
2023-02-03T00:23:56.180Z,4.50
2023-02-03T00:28:06.297Z,4.50
2023-02-03T00:32:15.699Z,3.27
2023-02-03T00:36:27.241Z,2.87
2023-02-03T00:40:36.384Z,2.53
2023-02-03T00:44:45.407Z,2.70
2023-02-03T00:48:54.567Z,3.20
2023-02-03T00:53:06.240Z,3.23
2023-02-03T00:57:15.439Z,3.10
2023-02-03T01:01:24.671Z,3.17
2023-02-03T01:05:33.871Z,2.93
2023-02-03T01:09:44.517Z,2.83
2023-02-03T01:13:55.093Z,2.87
2023-02-03T01:18:04.090Z,2.90
2023-02-03T01:22:13.299Z,3.73
2023-02-03T01:26:25.214Z,3.23
2023-02-03T01:30:34.720Z,3.10
2023-02-03T01:34:43.889Z,2.87
2023-02-03T01:38:53.187Z,2.90
2023-02-03T01:43:03.901Z,2.83
2023-02-03T01:47:27.264Z,3.00
2023-02-03T01:51:37.243Z,2.37
2023-02-03T01:55:51.637Z,2.67
2023-02-03T02:00:04.632Z,2.60
2023-02-03T02:04:14.269Z,2.30
2023-02-03T02:08:25.299Z,1.50
2023-02-03T02:12:34.366Z,1.60
2023-02-03T02:16:53.947Z,1.90
2023-02-03T02:21:39.349Z,2.07
2023-02-03T02:26:07.171Z,2.27
2023-02-03T02:30:56.216Z,2.40
2023-02-03T02:35:18.948Z,2.53
2023-02-03T02:39:45.717Z,2.10
2023-02-03T02:44:03.996Z,1.93
2023-02-03T02:48:19.547Z,1.90
2023-02-03T02:52:36.909Z,1.47
2023-02-03T02:56:49.559Z,1.73
2023-02-03T03:00:58.828Z,1.90
2023-02-03T03:05:12.771Z,1.13
2023-02-03T03:09:26.577Z,1.23
2023-02-03T03:13:39.571Z,1.37
2023-02-03T03:17:56.178Z,0.93
2023-02-03T03:22:09.232Z,1.17
2023-02-03T03:26:29.173Z,1.10
2023-02-03T03:30:44.601Z,1.23
2023-02-03T03:34:54.706Z,1.10
2023-02-03T03:39:07.214Z,1.20
2023-02-03T03:43:21.079Z,1.00
2023-02-03T03:47:35.169Z,1.10
2023-02-03T03:51:48.900Z,1.30
2023-02-03T03:56:03.820Z,1.20
2023-02-03T04:00:19.376Z,1.00
2023-02-03T04:04:29.879Z,1.00
2023-02-03T04:08:39.771Z,1.07
2023-02-03T04:12:50.196Z,1.40
2023-02-03T04:17:01.416Z,1.30
2023-02-03T04:21:10.547Z,1.20
2023-02-03T04:25:19.759Z,1.00
2023-02-03T04:29:28.861Z,1.30
2023-02-03T04:33:39.608Z,1.10
2023-02-03T04:37:48.782Z,1.03
2023-02-03T04:41:57.776Z,0.80
2023-02-03T04:46:07.225Z,1.03
2023-02-03T04:50:18.036Z,0.63
2023-02-03T04:54:27.192Z,1.10
2023-02-03T04:58:36.449Z,1.03
2023-02-03T05:02:45.502Z,0.67
2023-02-03T05:06:56.574Z,0.80
2023-02-03T05:11:06.655Z,0.60
2023-02-03T05:15:17.188Z,0.50
2023-02-03T05:19:26.235Z,0.60
2023-02-03T05:23:36.962Z,0.60
2023-02-03T05:27:46.187Z,0.70
2023-02-03T05:31:55.306Z,0.57
2023-02-03T05:36:04.583Z,0.60
2023-02-03T05:40:33.699Z,0.37
2023-02-03T05:44:42.865Z,0.50
2023-02-03T05:48:52.339Z,0.57
2023-02-03T05:53:01.976Z,0.40
2023-02-03T05:57:13.888Z,0.40
2023-02-03T06:01:23.197Z,0.40
2023-02-03T06:05:35.120Z,0.63
2023-02-03T06:09:44.286Z,0.53
2023-02-03T06:13:54.872Z,0.67
2023-02-03T06:18:03.972Z,0.60
2023-02-03T06:22:13.075Z,0.80
2023-02-03T06:26:22.269Z,0.60
2023-02-03T06:30:32.879Z,0.80
2023-02-03T06:34:41.992Z,0.80
2023-02-03T06:38:51.036Z,0.70
2023-02-03T06:43:00.228Z,0.73
2023-02-03T06:47:11.053Z,0.90
2023-02-03T06:51:20.119Z,0.97
2023-02-03T06:55:29.181Z,1.50
2023-02-03T06:59:38.299Z,1.53
2023-02-03T07:03:48.886Z,1.57
2023-02-03T07:07:58.036Z,1.80
2023-02-03T07:12:07.669Z,1.50
2023-02-03T07:16:18.741Z,1.20
2023-02-03T07:20:30.408Z,0.90
2023-02-03T07:24:39.821Z,1.20
2023-02-03T07:28:48.965Z,1.00
2023-02-03T07:32:58.134Z,0.90
2023-02-03T07:37:11.445Z,1.00
2023-02-03T07:41:20.615Z,1.00
2023-02-03T07:45:30.153Z,1.40
2023-02-03T07:49:39.287Z,0.83
2023-02-03T07:53:50.596Z,1.00
2023-02-03T07:58:03.119Z,1.07
2023-02-03T08:02:12.969Z,1.10
2023-02-03T08:06:22.072Z,0.97
2023-02-03T08:10:32.811Z,1.20
2023-02-03T08:14:41.967Z,1.03
2023-02-03T08:18:51.172Z,0.97
2023-02-03T08:23:00.446Z,0.87
2023-02-03T08:27:11.203Z,0.90
2023-02-03T08:31:20.759Z,1.00
2023-02-03T08:35:30.258Z,1.10
2023-02-03T08:39:40.133Z,1.30
2023-02-03T08:43:51.144Z,1.20
2023-02-03T08:48:00.373Z,1.00
2023-02-03T08:52:13.389Z,1.30
2023-02-03T08:56:22.729Z,1.13
2023-02-03T09:00:33.441Z,1.20
2023-02-03T09:04:42.605Z,1.13
2023-02-03T09:08:51.876Z,1.40
2023-02-03T09:13:01.085Z,1.60
2023-02-03T09:17:12.315Z,1.90
2023-02-03T09:21:33.551Z,1.67
2023-02-03T09:25:49.415Z,1.47
2023-02-03T09:29:58.928Z,1.53
2023-02-03T09:34:09.715Z,1.70
2023-02-03T09:38:18.728Z,1.60
2023-02-03T09:42:52.850Z,1.93
2023-02-03T09:47:05.809Z,1.83
2023-02-03T09:51:24.836Z,2.30
2023-02-03T09:55:40.408Z,2.17
2023-02-03T09:59:51.016Z,2.30
2023-02-03T10:04:07.808Z,2.20
2023-02-03T10:08:28.374Z,2.27
2023-02-03T10:13:08.424Z,2.30
2023-02-03T10:17:30.766Z,2.00
2023-02-03T10:21:46.405Z,1.60
2023-02-03T10:26:02.489Z,1.93
2023-02-03T10:30:21.917Z,1.90
2023-02-03T10:34:31.125Z,1.80
2023-02-03T10:38:50.751Z,2.50
2023-02-03T10:43:20.859Z,2.40
2023-02-03T10:47:37.637Z,2.03
2023-02-03T10:51:56.235Z,3.00
2023-02-03T10:56:13.378Z,3.60
2023-02-03T11:00:32.679Z,3.63
2023-02-03T11:04:41.973Z,2.77
2023-02-03T11:08:52.552Z,3.23
2023-02-03T11:13:21.163Z,2.40
2023-02-03T11:17:33.572Z,2.50
2023-02-03T11:21:53.113Z,2.00
2023-02-03T11:26:22.133Z,2.60
2023-02-03T11:30:32.064Z,1.90
2023-02-03T11:34:50.752Z,1.40
2023-02-03T11:39:23.352Z,1.70
2023-02-03T11:43:33.285Z,1.10
2023-02-03T11:47:51.605Z,1.40
2023-02-03T11:52:18.375Z,1.50
2023-02-03T11:56:34.397Z,1.30
2023-02-03T12:00:57.669Z,1.10
2023-02-03T12:05:28.347Z,1.10
2023-02-03T12:09:55.055Z,1.40
2023-02-03T12:14:32.086Z,1.80
2023-02-03T12:18:58.609Z,1.40
2023-02-03T12:23:39.257Z,1.40
2023-02-03T12:28:27.438Z,1.10
2023-02-03T12:33:05.697Z,1.23
2023-02-03T12:37:26.249Z,1.50
2023-02-03T12:41:40.698Z,1.47
2023-02-03T12:45:56.664Z,1.60
2023-02-03T12:50:16.516Z,1.57
2023-02-03T12:55:08.290Z,1.33
2023-02-03T12:59:24.300Z,1.30
2023-02-03T13:03:44.598Z,2.00
2023-02-03T13:08:02.020Z,2.10
2023-02-03T13:12:20.638Z,1.73
2023-02-03T13:16:40.338Z,2.30
2023-02-03T13:20:52.937Z,1.90
2023-02-03T13:25:14.816Z,1.83
2023-02-03T13:30:11.660Z,1.80
2023-02-03T13:34:59.416Z,1.90
2023-02-03T13:39:50.904Z,1.97
2023-02-03T13:44:25.471Z,1.83
2023-02-03T13:48:43.820Z,1.93
2023-02-03T13:53:02.462Z,1.43
2023-02-03T13:57:28.875Z,1.57
2023-02-03T14:01:40.314Z,1.40
2023-02-03T14:05:52.422Z,1.40
2023-02-03T14:15:34.194Z,1.60
2023-02-03T14:20:09.656Z,1.70
2023-02-03T14:24:20.537Z,1.83
2023-02-03T14:28:53.937Z,1.90
2023-02-03T14:33:06.643Z,1.23
2023-02-03T14:37:32.617Z,1.30
2023-02-03T14:41:59.641Z,1.13
2023-02-03T14:46:30.139Z,1.50
2023-02-03T14:50:59.077Z,1.30
2023-02-03T14:55:31.319Z,1.30
2023-02-03T14:59:47.649Z,1.27
2023-02-03T15:04:25.000Z,1.30
2023-02-03T15:09:11.142Z,1.47
2023-02-03T15:13:35.644Z,1.30
2023-02-03T15:17:45.848Z,1.50
2023-02-03T15:21:55.699Z,1.70
2023-02-03T15:31:07.273Z,1.63
2023-02-03T15:35:21.621Z,1.70
2023-02-03T15:39:51.903Z,1.70
2023-02-03T15:44:07.718Z,2.00
2023-02-03T15:48:26.521Z,1.77
2023-02-03T15:52:43.186Z,1.70
2023-02-03T15:57:10.626Z,1.90
2023-02-03T16:01:29.715Z,1.30
2023-02-03T16:05:41.831Z,2.23
2023-02-03T16:09:55.198Z,1.57
2023-02-03T16:14:07.703Z,1.70
2023-02-03T16:18:19.486Z,1.60
2023-02-03T16:22:40.710Z,1.40
2023-02-03T16:26:50.998Z,1.57
2023-02-03T16:31:25.900Z,1.40
2023-02-03T16:35:52.540Z,1.63
2023-02-03T16:40:20.717Z,1.47
2023-02-03T16:44:49.631Z,1.47
2023-02-03T16:49:19.916Z,1.87
2023-02-03T16:53:33.074Z,1.50
2023-02-03T16:57:45.483Z,1.60
2023-02-03T17:01:55.058Z,1.47
2023-02-03T17:06:20.111Z,1.40
2023-02-03T17:10:31.573Z,1.40
2023-02-03T17:14:44.132Z,1.40
2023-02-03T17:18:54.523Z,2.17
2023-02-03T17:23:04.076Z,2.20
2023-02-03T17:27:13.705Z,5.43
2023-02-03T17:31:27.024Z,3.20
2023-02-03T17:35:37.100Z,2.57
2023-02-03T17:57:19.103Z,7.70
2023-02-03T18:01:28.749Z,7.83
2023-02-03T18:05:39.850Z,7.17
2023-02-03T18:09:49.315Z,7.13
2023-02-03T18:13:59.122Z,4.83
2023-02-03T18:18:08.455Z,3.77
2023-02-03T18:22:19.539Z,2.53
2023-02-03T18:26:30.436Z,2.30
2023-02-03T18:30:42.608Z,2.10
2023-02-03T18:34:52.610Z,2.87
2023-02-03T18:39:04.860Z,2.70
2023-02-03T18:43:14.079Z,2.50
2023-02-03T18:47:23.474Z,2.47
2023-02-03T18:51:32.955Z,2.30
2023-02-03T18:55:45.895Z,2.30
2023-02-03T18:59:57.013Z,2.97
2023-02-03T19:04:06.739Z,2.60
2023-02-03T19:08:16.203Z,2.10
2023-02-03T19:12:28.128Z,5.70
2023-02-03T19:16:38.485Z,3.67
2023-02-03T19:20:48.685Z,2.80
2023-02-03T19:24:58.263Z,3.90
2023-02-03T19:29:09.522Z,3.40
2023-02-03T19:33:18.891Z,2.60
2023-02-03T19:37:28.251Z,2.50
2023-02-03T19:41:37.954Z,3.07
2023-02-03T19:45:48.674Z,4.30
2023-02-03T19:49:58.116Z,5.17
2023-02-03T19:54:07.752Z,4.97
2023-02-03T19:58:17.327Z,4.43
2023-02-03T20:02:28.261Z,3.80
2023-02-03T20:06:38.043Z,3.30
2023-02-03T20:10:47.570Z,3.90
2023-02-03T20:14:56.922Z,3.27
2023-02-03T20:19:07.827Z,3.30
2023-02-03T20:23:17.185Z,4.20
2023-02-03T20:27:26.508Z,3.50
2023-02-03T20:31:36.283Z,3.77
2023-02-03T20:35:47.103Z,4.10
2023-02-03T20:39:56.436Z,4.63
2023-02-03T20:44:08.631Z,5.37
2023-02-03T20:48:21.082Z,5.57
2023-02-03T20:52:32.040Z,5.03
2023-02-03T20:56:41.489Z,4.80
2023-02-03T21:00:51.193Z,4.90
2023-02-03T21:05:02.264Z,4.07
2023-02-03T21:09:17.652Z,3.60
2023-02-03T21:13:28.561Z,4.33
2023-02-03T21:17:38.151Z,4.00
2023-02-03T21:21:47.717Z,3.70
2023-02-03T21:25:58.572Z,5.10
2023-02-03T21:30:29.603Z,5.37
2023-02-03T21:34:39.223Z,5.20
2023-02-03T21:38:51.191Z,4.57
2023-02-03T21:43:03.645Z,4.20
2023-02-03T21:47:16.747Z,4.23
2023-02-03T21:51:27.370Z,4.23
2023-02-03T21:55:36.825Z,4.90
2023-02-03T21:59:49.673Z,4.17
2023-02-03T22:04:01.988Z,3.93
2023-02-03T22:08:21.155Z,3.50
2023-02-03T22:12:30.494Z,3.30
2023-02-03T22:16:41.302Z,3.07
2023-02-03T22:20:50.575Z,2.80
2023-02-03T22:24:59.894Z,3.07
2023-02-03T22:29:09.085Z,2.63
2023-02-03T22:33:20.072Z,2.70
2023-02-03T22:37:32.729Z,2.90
2023-02-03T22:41:41.964Z,2.70
2023-02-03T22:45:51.212Z,2.53
2023-02-03T22:50:02.040Z,2.70
2023-02-03T22:54:11.282Z,2.10
2023-02-03T22:58:20.859Z,2.93
2023-02-03T23:02:30.021Z,2.90
2023-02-03T23:06:40.793Z,2.50
2023-02-03T23:10:50.431Z,3.00
2023-02-03T23:15:01.505Z,2.70
2023-02-03T23:19:10.694Z,3.10
2023-02-03T23:23:21.290Z,3.10
2023-02-03T23:27:30.521Z,2.97
2023-02-03T23:31:39.638Z,3.07
2023-02-03T23:35:50.429Z,3.10
2023-02-03T23:40:01.110Z,3.27
2023-02-03T23:44:11.250Z,2.97
2023-02-03T23:48:20.422Z,2.60
2023-02-03T23:52:35.865Z,2.60
2023-02-03T23:56:46.581Z,2.70
